Time;durP1;ratioP1;P1;durP2;ratioP2;P2;SDS_P1;SDS_P2;PMS_P1;PMS_P2;Temp;Humidity;BMP_temperature;BMP_pressure;BME280_temperature;BME280_humidity;BME280_pressure;Samples;Min_cycle;Max_cycle;Signal;HPM_P1;HPM_P2
2022/09/21 00:00:19;;;;;;;12.50;6.80;;;;;;;;;;1853144;76;21170;-83
2022/09/21 00:02:49;;;;;;;25.23;16.32;;;;;;;;;;1827918;76;21178;-83
2022/09/21 00:05:19;;;;;;;23.67;16.07;;;;;;;;;;1862677;76;21163;-82
2022/09/21 00:07:49;;;;;;;21.15;14.55;;;;;;;;;;1845758;75;21165;-83
2022/09/21 00:10:20;;;;;;;12.45;8.43;;;;;;;;;;1851535;75;21192;-85
2022/09/21 00:12:50;;;;;;;10.55;6.28;;;;;;;;;;1851051;76;21188;-82
2022/09/21 00:15:20;;;;;;;13.90;7.08;;;;;;;;;;1847895;76;21098;-84
2022/09/21 00:17:52;;;;;;;8.63;6.10;;;;;;;;;;1856733;76;21179;-81
2022/09/21 00:20:23;;;;;;;10.40;6.72;;;;;;;;;;1868002;75;21167;-82
2022/09/21 00:22:53;;;;;;;9.45;6.80;;;;;;;;;;1854190;76;21159;-83
2022/09/21 00:25:23;;;;;;;11.93;6.97;;;;;;;;;;1816948;77;21888;-82
2022/09/21 00:27:54;;;;;;;11.35;6.60;;;;;;;;;;1860495;76;21145;-83
2022/09/21 00:30:24;;;;;;;11.48;7.42;;;;;;;;;;1868763;75;21146;-83
2022/09/21 00:32:54;;;;;;;18.52;10.18;;;;;;;;;;1849502;76;21182;-83
2022/09/21 00:35:25;;;;;;;10.58;6.78;;;;;;;;;;1854566;76;21179;-82
2022/09/21 00:37:55;;;;;;;17.65;8.90;;;;;;;;;;1844331;76;21284;-83
2022/09/21 00:40:25;;;;;;;13.93;6.92;;;;;;;;;;1847139;76;21195;-83
2022/09/21 00:42:57;;;;;;;10.18;5.90;;;;;;;;;;1862165;75;21235;-84
2022/09/21 00:45:27;;;;;;;8.73;5.50;;;;;;;;;;1852416;75;21174;-82
2022/09/21 00:47:57;;;;;;;8.05;5.42;;;;;;;;;;1845950;75;21628;-83
2022/09/21 00:50:27;;;;;;;9.45;5.20;;;;;;;;;;1846070;75;21543;-82
2022/09/21 00:52:58;;;;;;;18.02;5.05;;;;;;;;;;1846907;77;21166;-83
2022/09/21 00:55:30;;;;;;;8.45;5.25;;;;;;;;;;1813199;77;22121;-82
2022/09/21 00:58:01;;;;;;;6.15;4.45;;;;;;;;;;1786531;78;21639;-83
2022/09/21 01:00:31;;;;;;;6.37;5.03;;;;;;;;;;1795460;78;21175;-82
2022/09/21 01:03:02;;;;;;;10.88;5.55;;;;;;;;;;1784198;78;21159;-83
2022/09/21 01:05:32;;;;;;;7.17;5.12;;;;;;;;;;1847366;76;21198;-83
2022/09/21 01:08:04;;;;;;;10.85;6.50;;;;;;;;;;1861731;75;21170;-82
2022/09/21 01:10:35;;;;;;;10.32;6.17;;;;;;;;;;1859031;76;21167;-84
2022/09/21 01:13:07;;;;;;;9.43;5.58;;;;;;;;;;1854539;75;21222;-85
2022/09/21 01:15:38;;;;;;;9.85;5.50;;;;;;;;;;1856137;76;21160;-84
2022/09/21 01:18:09;;;;;;;10.90;5.22;;;;;;;;;;1857550;76;21103;-85
2022/09/21 01:20:41;;;;;;;11.35;5.78;;;;;;;;;;1858131;75;21772;-84
2022/09/21 01:23:12;;;;;;;11.30;5.92;;;;;;;;;;1858371;76;21208;-84
2022/09/21 01:25:43;;;;;;;9.53;5.60;;;;;;;;;;1854837;75;21214;-83
2022/09/21 01:28:15;;;;;;;12.53;6.05;;;;;;;;;;1844262;76;21160;-85
2022/09/21 01:30:45;;;;;;;13.38;6.28;;;;;;;;;;1787811;78;21456;-84
2022/09/21 01:33:18;;;;;;;10.48;5.87;;;;;;;;;;1853971;76;21713;-85
2022/09/21 01:35:49;;;;;;;8.70;6.17;;;;;;;;;;1863851;75;21205;-83
2022/09/21 01:38:21;;;;;;;9.08;5.97;;;;;;;;;;1860106;76;21154;-85
2022/09/21 01:40:53;;;;;;;8.23;5.95;;;;;;;;;;1852865;76;21078;-84
2022/09/21 01:43:24;;;;;;;7.47;5.90;;;;;;;;;;1860845;75;21727;-83
2022/09/21 01:45:55;;;;;;;10.98;5.90;;;;;;;;;;1850604;75;21185;-84
2022/09/21 01:48:26;;;;;;;10.93;5.78;;;;;;;;;;1859695;75;21139;-81
2022/09/21 01:50:57;;;;;;;9.73;6.58;;;;;;;;;;1857332;75;21182;-84
2022/09/21 01:53:28;;;;;;;8.50;5.97;;;;;;;;;;1856601;75;21214;-83
2022/09/21 01:56:00;;;;;;;8.40;6.00;;;;;;;;;;1862336;76;21221;-83
2022/09/21 01:58:32;;;;;;;9.55;5.75;;;;;;;;;;1859080;75;21649;-84
2022/09/21 02:01:02;;;;;;;12.47;7.10;;;;;;;;;;1855592;76;21655;-85
2022/09/21 02:03:34;;;;;;;6.92;5.65;;;;;;;;;;1850579;76;21074;-84
2022/09/21 02:06:05;;;;;;;7.85;5.55;;;;;;;;;;1858773;75;21123;-85
2022/09/21 02:08:36;;;;;;;10.70;5.75;;;;;;;;;;1849040;76;21206;-84
2022/09/21 02:11:06;;;;;;;5.75;5.05;;;;;;;;;;1861419;75;21448;-85
2022/09/21 02:13:38;;;;;;;8.75;5.50;;;;;;;;;;1856420;75;21670;-84
2022/09/21 02:16:11;;;;;;;10.68;6.47;;;;;;;;;;1858786;75;21195;-84
2022/09/21 02:18:42;;;;;;;9.20;5.92;;;;;;;;;;1850731;75;21170;-84
2022/09/21 02:21:14;;;;;;;12.80;6.30;;;;;;;;;;1861564;76;21122;-84
2022/09/21 02:23:45;;;;;;;11.05;6.95;;;;;;;;;;1853353;76;21179;-85
2022/09/21 02:26:16;;;;;;;8.45;6.40;;;;;;;;;;1851489;75;21228;-86
2022/09/21 02:28:48;;;;;;;10.98;6.47;;;;;;;;;;1854013;76;21175;-84
2022/09/21 02:31:19;;;;;;;10.53;6.45;;;;;;;;;;1862085;75;21159;-84
2022/09/21 02:33:49;;;;;;;8.73;5.67;;;;;;;;;;1851074;76;21146;-83
2022/09/21 02:36:20;;;;;;;9.05;5.50;;;;;;;;;;1859880;75;21674;-85
2022/09/21 02:38:52;;;;;;;8.15;6.17;;;;;;;;;;1851506;76;21131;-83
2022/09/21 02:41:23;;;;;;;8.38;5.42;;;;;;;;;;1849543;76;21154;-83
2022/09/21 02:43:55;;;;;;;9.78;6.33;;;;;;;;;;1854597;75;21214;-81
2022/09/21 02:46:27;;;;;;;7.97;5.45;;;;;;;;;;1855082;75;21242;-82
2022/09/21 02:48:59;;;;;;;8.33;6.28;;;;;;;;;;1828055;77;21181;-81
2022/09/21 02:51:31;;;;;;;10.70;5.70;;;;;;;;;;1819489;77;21206;-82
2022/09/21 02:54:02;;;;;;;8.73;6.20;;;;;;;;;;1863660;76;21177;-83
2022/09/21 02:56:33;;;;;;;5.97;5.33;;;;;;;;;;1856004;76;21210;-82
2022/09/21 02:59:04;;;;;;;8.43;4.90;;;;;;;;;;1861767;76;21700;-81
2022/09/21 03:01:34;;;;;;;7.65;4.70;;;;;;;;;;1859543;75;21265;-82
2022/09/21 03:04:05;;;;;;;7.20;5.35;;;;;;;;;;1852415;75;21611;-83
2022/09/21 03:06:35;;;;;;;7.30;5.17;;;;;;;;;;1858506;76;21256;-82
2022/09/21 03:09:06;;;;;;;6.83;5.20;;;;;;;;;;1828168;76;21076;-81
2022/09/21 03:11:36;;;;;;;6.22;5.08;;;;;;;;;;1827420;76;21139;-84
2022/09/21 03:14:07;;;;;;;7.60;5.17;;;;;;;;;;1835495;76;21677;-81
2022/09/21 03:16:38;;;;;;;7.78;5.37;;;;;;;;;;1869959;76;21179;-84
2022/09/21 03:19:08;;;;;;;7.15;5.72;;;;;;;;;;1861044;75;21519;-83
2022/09/21 03:21:42;;;;;;;6.20;5.45;;;;;;;;;;1839901;76;21249;-84
2022/09/21 03:24:44;;;;;;;7.97;5.80;;;;;;;;;;1852034;75;21162;-81
2022/09/21 03:26:45;;;;;;;7.58;5.40;;;;;;;;;;1821458;77;21220;-83
2022/09/21 03:29:15;;;;;;;9.03;5.10;;;;;;;;;;1862873;75;21461;-82
2022/09/21 03:31:45;;;;;;;6.08;5.00;;;;;;;;;;1877247;76;21656;-84
2022/09/21 03:34:15;;;;;;;7.28;5.30;;;;;;;;;;1873425;76;21626;-82
2022/09/21 03:36:47;;;;;;;6.65;4.67;;;;;;;;;;1872923;75;21131;-84
2022/09/21 03:39:17;;;;;;;6.67;5.33;;;;;;;;;;1867467;76;21191;-85
2022/09/21 03:41:52;;;;;;;7.05;5.33;;;;;;;;;;1870580;76;21155;-83
2022/09/21 03:44:23;;;;;;;7.65;5.22;;;;;;;;;;1815217;78;21136;-83
2022/09/21 03:46:54;;;;;;;6.10;4.85;;;;;;;;;;1868765;76;21792;-83
2022/09/21 03:49:25;;;;;;;6.53;4.87;;;;;;;;;;1821981;78;21659;-85
2022/09/21 03:51:57;;;;;;;51.13;9.40;;;;;;;;;;1863643;75;21179;-83
2022/09/21 03:54:27;;;;;;;20.00;6.65;;;;;;;;;;1842959;76;21159;-86
2022/09/21 03:56:57;;;;;;;7.60;5.20;;;;;;;;;;1855159;76;21182;-83
2022/09/21 03:59:29;;;;;;;6.22;4.47;;;;;;;;;;1860983;76;21190;-82
2022/09/21 04:01:59;;;;;;;7.65;5.05;;;;;;;;;;1873255;76;21158;-84
2022/09/21 04:04:33;;;;;;;7.78;4.40;;;;;;;;;;1815441;78;21123;-83
2022/09/21 04:07:03;;;;;;;6.70;4.65;;;;;;;;;;1826149;77;21310;-85
2022/09/21 04:09:34;;;;;;;6.78;4.33;;;;;;;;;;1875376;76;21099;-84
2022/09/21 04:12:08;;;;;;;5.00;4.45;;;;;;;;;;1868619;75;21704;-82
2022/09/21 04:14:41;;;;;;;13.75;5.40;;;;;;;;;;1863560;75;21623;-83
2022/09/21 04:17:16;;;;;;;5.42;4.83;;;;;;;;;;1870807;76;21594;-83
2022/09/21 04:20:01;;;;;;;12.13;5.33;;;;;;;;;;1875632;75;21107;-82
2022/09/21 04:22:33;;;;;;;14.70;5.22;;;;;;;;;;1876750;76;21151;-82
2022/09/21 04:25:07;;;;;;;19.10;5.62;;;;;;;;;;1874052;76;21142;-83
2022/09/21 04:27:40;;;;;;;7.20;4.53;;;;;;;;;;1874599;75;21115;-85
2022/09/21 04:30:14;;;;;;;6.15;4.40;;;;;;;;;;1868601;75;21155;-84
2022/09/21 04:32:46;;;;;;;8.68;4.60;;;;;;;;;;1872797;76;21189;-86
2022/09/21 04:35:17;;;;;;;5.25;4.22;;;;;;;;;;1812767;78;21782;-84
2022/09/21 04:37:47;;;;;;;5.40;4.22;;;;;;;;;;1847692;76;21701;-84
2022/09/21 04:40:17;;;;;;;8.45;4.55;;;;;;;;;;1855412;76;21249;-85
2022/09/21 04:42:49;;;;;;;6.15;4.10;;;;;;;;;;1851789;76;21139;-84
2022/09/21 04:45:23;;;;;;;5.87;4.50;;;;;;;;;;1854246;75;21127;-85
2022/09/21 04:47:54;;;;;;;5.15;4.15;;;;;;;;;;1861832;76;21167;-84
2022/09/21 04:50:24;;;;;;;7.17;4.45;;;;;;;;;;1855539;76;21229;-84
2022/09/21 04:52:54;;;;;;;5.97;4.40;;;;;;;;;;1854764;76;21148;-84
2022/09/21 04:55:24;;;;;;;5.87;4.70;;;;;;;;;;1847064;76;21081;-82
2022/09/21 04:57:54;;;;;;;6.10;4.62;;;;;;;;;;1853055;76;21238;-85
2022/09/21 05:00:25;;;;;;;5.55;4.33;;;;;;;;;;1849127;76;21202;-84
2022/09/21 05:02:56;;;;;;;6.80;4.40;;;;;;;;;;1855903;76;21268;-85
2022/09/21 05:05:30;;;;;;;5.80;4.22;;;;;;;;;;1856334;76;21634;-84
2022/09/21 05:08:02;;;;;;;5.20;4.53;;;;;;;;;;1854432;76;21213;-83
2022/09/21 05:10:32;;;;;;;5.10;4.08;;;;;;;;;;1851609;76;21233;-83
2022/09/21 05:13:02;;;;;;;5.12;4.35;;;;;;;;;;1850811;76;21886;-84
2022/09/21 05:15:32;;;;;;;4.65;4.15;;;;;;;;;;1861479;76;21606;-84
2022/09/21 05:18:03;;;;;;;6.28;4.22;;;;;;;;;;1850376;76;21224;-86
2022/09/21 05:20:33;;;;;;;8.60;6.20;;;;;;;;;;1850710;76;21127;-84
2022/09/21 05:23:03;;;;;;;5.60;4.60;;;;;;;;;;1803380;79;21131;-84
2022/09/21 05:25:33;;;;;;;7.47;4.45;;;;;;;;;;1818198;77;21093;-84
2022/09/21 05:28:04;;;;;;;5.75;4.15;;;;;;;;;;1820719;77;21178;-84
2022/09/21 05:30:37;;;;;;;5.37;4.30;;;;;;;;;;1853294;76;21105;-84
2022/09/21 05:33:10;;;;;;;5.22;3.72;;;;;;;;;;1853419;76;21163;-85
2022/09/21 05:35:42;;;;;;;6.58;4.60;;;;;;;;;;1858997;76;21463;-84
2022/09/21 05:38:15;;;;;;;5.15;4.20;;;;;;;;;;1854413;76;21281;-83
2022/09/21 05:40:46;;;;;;;4.62;3.92;;;;;;;;;;1858208;76;21127;-83
2022/09/21 05:43:17;;;;;;;7.08;4.35;;;;;;;;;;1855613;76;21602;-84
2022/09/21 05:45:48;;;;;;;4.12;3.55;;;;;;;;;;1848748;76;21236;-84
2022/09/21 05:48:23;;;;;;;5.95;4.20;;;;;;;;;;1863875;76;21214;-84
2022/09/21 05:50:53;;;;;;;4.25;3.85;;;;;;;;;;1853813;76;21221;-85
2022/09/21 05:53:24;;;;;;;5.42;4.30;;;;;;;;;;1857516;76;21176;-84
2022/09/21 05:55:55;;;;;;;5.47;4.35;;;;;;;;;;1860591;76;21160;-84
2022/09/21 05:58:27;;;;;;;5.45;4.62;;;;;;;;;;1862141;76;21077;-85
2022/09/21 06:00:59;;;;;;;7.05;4.55;;;;;;;;;;1851664;76;21080;-85
2022/09/21 06:03:31;;;;;;;6.70;4.50;;;;;;;;;;1854197;76;21183;-84
2022/09/21 06:06:01;;;;;;;7.60;4.80;;;;;;;;;;1860806;76;21151;-84
2022/09/21 06:08:32;;;;;;;6.08;4.17;;;;;;;;;;1844028;76;21136;-84
2022/09/21 06:11:02;;;;;;;5.08;4.58;;;;;;;;;;1851743;76;21726;-84
2022/09/21 06:13:32;;;;;;;5.40;4.37;;;;;;;;;;1840357;76;21107;-85
2022/09/21 06:16:02;;;;;;;5.50;4.25;;;;;;;;;;1858215;76;21213;-85
2022/09/21 06:18:34;;;;;;;5.10;4.08;;;;;;;;;;1805242;78;21246;-84
2022/09/21 06:21:07;;;;;;;7.72;5.00;;;;;;;;;;1856956;76;21085;-84
2022/09/21 06:23:38;;;;;;;5.70;4.83;;;;;;;;;;1846289;76;21115;-85
2022/09/21 06:26:08;;;;;;;5.50;4.30;;;;;;;;;;1850399;76;21138;-86
2022/09/21 06:28:38;;;;;;;8.10;4.67;;;;;;;;;;1801888;79;21085;-85
2022/09/21 06:31:09;;;;;;;6.05;4.20;;;;;;;;;;1843744;76;21829;-83
2022/09/21 06:33:39;;;;;;;5.55;4.35;;;;;;;;;;1840824;76;21569;-85
2022/09/21 06:36:10;;;;;;;5.28;4.22;;;;;;;;;;1836608;77;21890;-84
2022/09/21 06:38:40;;;;;;;5.78;4.72;;;;;;;;;;1839768;76;22355;-85
2022/09/21 06:41:10;;;;;;;5.78;4.17;;;;;;;;;;1845584;76;21120;-85
2022/09/21 06:43:42;;;;;;;5.20;4.08;;;;;;;;;;1844561;76;21155;-86
2022/09/21 06:46:12;;;;;;;6.17;4.78;;;;;;;;;;1849295;76;21592;-86
2022/09/21 06:48:42;;;;;;;6.22;4.20;;;;;;;;;;1852808;76;21602;-85
2022/09/21 06:51:13;;;;;;;7.05;4.53;;;;;;;;;;1854838;76;21116;-84
2022/09/21 06:53:43;;;;;;;6.90;4.83;;;;;;;;;;1841304;76;21218;-84
2022/09/21 06:56:13;;;;;;;5.65;4.87;;;;;;;;;;1844093;76;21150;-84
2022/09/21 06:58:45;;;;;;;6.42;4.42;;;;;;;;;;1845207;76;21197;-85
2022/09/21 07:01:15;;;;;;;5.12;4.45;;;;;;;;;;1846747;76;21198;-84
2022/09/21 07:03:46;;;;;;;6.45;4.53;;;;;;;;;;1843005;76;21205;-85
2022/09/21 07:06:17;;;;;;;7.85;6.75;;;;;;;;;;1848583;76;21170;-85
2022/09/21 07:08:48;;;;;;;8.10;5.03;;;;;;;;;;1852017;76;21543;-83
2022/09/21 07:11:20;;;;;;;6.15;4.65;;;;;;;;;;1848856;76;21088;-84
2022/09/21 07:13:52;;;;;;;5.97;4.53;;;;;;;;;;1846756;76;21681;-83
2022/09/21 07:16:23;;;;;;;8.23;4.92;;;;;;;;;;1851065;76;21103;-83
2022/09/21 07:18:53;;;;;;;5.87;4.22;;;;;;;;;;1841115;76;21247;-85
2022/09/21 07:21:27;;;;;;;8.03;5.37;;;;;;;;;;1861063;76;21197;-83
2022/09/21 07:23:59;;;;;;;5.97;4.80;;;;;;;;;;1838980;76;21637;-84
2022/09/21 07:26:29;;;;;;;7.35;4.78;;;;;;;;;;1853297;76;21104;-85
2022/09/21 07:28:59;;;;;;;5.35;4.25;;;;;;;;;;1845407;76;21221;-86
2022/09/21 07:31:29;;;;;;;6.17;4.67;;;;;;;;;;1851516;76;21179;-85
2022/09/21 07:33:59;;;;;;;8.00;4.30;;;;;;;;;;1856576;76;21137;-85
2022/09/21 07:36:30;;;;;;;4.92;4.40;;;;;;;;;;1846404;76;21127;-83
2022/09/21 07:39:01;;;;;;;7.60;4.60;;;;;;;;;;1842045;76;21158;-82
2022/09/21 07:41:32;;;;;;;5.55;4.33;;;;;;;;;;1853624;76;21196;-83
2022/09/21 07:44:03;;;;;;;7.10;4.70;;;;;;;;;;1852738;76;21202;-84
2022/09/21 07:46:34;;;;;;;6.60;5.10;;;;;;;;;;1832212;76;21139;-82
2022/09/21 07:49:05;;;;;;;6.92;4.45;;;;;;;;;;1860612;76;21095;-83
2022/09/21 07:51:35;;;;;;;7.25;4.75;;;;;;;;;;1859956;76;21053;-81
2022/09/21 07:54:07;;;;;;;5.25;4.50;;;;;;;;;;1851156;76;21190;-83
2022/09/21 07:56:37;;;;;;;5.55;4.60;;;;;;;;;;1849081;76;21151;-84
2022/09/21 07:59:10;;;;;;;6.42;5.15;;;;;;;;;;1799226;79;21202;-84
2022/09/21 08:01:40;;;;;;;8.45;5.42;;;;;;;;;;1783205;79;21195;-83
2022/09/21 08:04:11;;;;;;;6.75;4.80;;;;;;;;;;1842658;76;21100;-84
2022/09/21 08:06:41;;;;;;;6.28;5.22;;;;;;;;;;1857242;76;21092;-84
2022/09/21 08:09:11;;;;;;;6.25;4.83;;;;;;;;;;1859867;76;21084;-84
2022/09/21 08:11:45;;;;;;;5.85;4.62;;;;;;;;;;1864493;76;21552;-84
2022/09/21 08:14:18;;;;;;;5.37;4.30;;;;;;;;;;1849521;76;21128;-83
2022/09/21 08:16:45;;;;;;;5.55;4.85;;;;;;;;;;1847066;76;21080;-85
2022/09/21 08:19:16;;;;;;;5.53;4.70;;;;;;;;;;1862501;76;21195;-84
2022/09/21 08:21:50;;;;;;;5.40;4.87;;;;;;;;;;1852679;76;21167;-86
2022/09/21 08:24:41;;;;;;;6.08;5.08;;;;;;;;;;1712878;82;21204;-83
2022/09/21 08:27:18;;;;;;;6.12;4.70;;;;;;;;;;1698875;84;21209;-83
2022/09/21 08:29:43;;;;;;;5.85;5.20;;;;;;;;;;1725725;82;21235;-83
2022/09/21 08:32:13;;;;;;;6.12;4.45;;;;;;;;;;1723760;81;21211;-83
2022/09/21 08:34:44;;;;;;;7.60;4.72;;;;;;;;;;1711364;82;21178;-82
2022/09/21 08:37:28;;;;;;;;;;;;;;;;;;;;;
2022/09/21 08:43:24;;;;;;;6.10;4.40;;;;;;;;;;1563806;90;21346;-85
2022/09/21 08:45:55;;;;;;;5.85;4.70;;;;;;;;;;1552870;92;21397;-85
2022/09/21 08:48:29;;;;;;;7.80;4.60;;;;;;;;;;1601043;87;21211;-84
2022/09/21 08:51:02;;;;;;;13.37;5.13;;;;;;;;;;1610493;88;21617;-85
2022/09/21 08:53:33;;;;;;;6.75;4.47;;;;;;;;;;1626870;87;21305;-85
2022/09/21 08:56:03;;;;;;;5.35;4.20;;;;;;;;;;1660716;83;21218;-85
2022/09/21 08:58:34;;;;;;;6.35;4.55;;;;;;;;;;1733403;82;21643;-86
2022/09/21 09:01:05;;;;;;;6.03;4.50;;;;;;;;;;1724408;81;21252;-85
2022/09/21 09:03:37;;;;;;;7.78;4.35;;;;;;;;;;1722825;81;21842;-87
2022/09/21 09:06:10;;;;;;;7.45;4.30;;;;;;;;;;1736149;81;22060;-86
2022/09/21 09:08:41;;;;;;;7.60;4.85;;;;;;;;;;1725780;81;21213;-87
2022/09/21 09:11:13;;;;;;;6.40;4.78;;;;;;;;;;1731330;81;21236;-85
2022/09/21 09:13:44;;;;;;;6.45;4.90;;;;;;;;;;1714461;83;21119;-85
2022/09/21 09:16:15;;;;;;;7.60;5.12;;;;;;;;;;1714257;83;21199;-87
2022/09/21 09:18:47;;;;;;;6.33;5.12;;;;;;;;;;1720949;82;21167;-84
2022/09/21 09:21:18;;;;;;;11.38;5.22;;;;;;;;;;1818573;78;21186;-86
2022/09/21 09:23:51;;;;;;;8.93;5.30;;;;;;;;;;1832547;77;21173;-84
2022/09/21 09:26:22;;;;;;;6.92;4.70;;;;;;;;;;1836295;78;21561;-83
2022/09/21 09:29:03;;;;;;;6.78;4.95;;;;;;;;;;1835033;78;21147;-84
2022/09/21 09:31:30;;;;;;;4.70;4.20;;;;;;;;;;1833102;76;21183;-84
2022/09/21 09:34:01;;;;;;;6.17;4.97;;;;;;;;;;1831815;76;21145;-85
2022/09/21 09:36:33;;;;;;;7.53;4.53;;;;;;;;;;1829956;78;21082;-86
2022/09/21 09:39:05;;;;;;;6.92;4.62;;;;;;;;;;1760400;79;21198;-86
2022/09/21 09:41:37;;;;;;;6.58;4.65;;;;;;;;;;1797357;79;21207;-85
2022/09/21 09:44:08;;;;;;;8.60;5.10;;;;;;;;;;1833479;77;21283;-85
2022/09/21 09:46:41;;;;;;;5.62;5.03;;;;;;;;;;1816139;77;21086;-84
2022/09/21 09:49:13;;;;;;;7.55;4.90;;;;;;;;;;1829384;77;21455;-86
2022/09/21 09:51:43;;;;;;;5.45;4.85;;;;;;;;;;1815277;78;21397;-84
2022/09/21 09:54:16;;;;;;;7.33;4.80;;;;;;;;;;1834607;76;21120;-85
2022/09/21 09:56:49;;;;;;;5.85;4.75;;;;;;;;;;1843387;76;21070;-84
2022/09/21 09:59:21;;;;;;;6.75;4.70;;;;;;;;;;1834382;78;21202;-83
2022/09/21 10:01:52;;;;;;;5.53;4.62;;;;;;;;;;1820438;77;21086;-84
2022/09/21 10:04:22;;;;;;;8.03;4.50;;;;;;;;;;1832604;78;21131;-83
2022/09/21 10:06:52;;;;;;;6.92;4.42;;;;;;;;;;1832393;77;21167;-84
2022/09/21 10:09:22;;;;;;;6.55;4.92;;;;;;;;;;1827033;76;21192;-84
2022/09/21 10:11:53;;;;;;;6.35;5.75;;;;;;;;;;1832035;76;21626;-83
2022/09/21 10:14:24;;;;;;;7.17;5.00;;;;;;;;;;1833365;77;21163;-84
2022/09/21 10:16:56;;;;;;;6.15;4.80;;;;;;;;;;1808126;77;21160;-82
2022/09/21 10:19:27;;;;;;;7.10;5.55;;;;;;;;;;1826972;77;21189;-84
2022/09/21 10:22:02;;;;;;;7.95;5.67;;;;;;;;;;1832520;78;21161;-84
2022/09/21 10:24:34;;;;;;;7.42;5.12;;;;;;;;;;1834287;75;21132;-82
2022/09/21 10:27:10;;;;;;;5.55;4.95;;;;;;;;;;1831573;77;21565;-84
2022/09/21 10:29:40;;;;;;;6.97;4.85;;;;;;;;;;1831102;77;21188;-84
2022/09/21 10:32:11;;;;;;;6.87;5.30;;;;;;;;;;1824080;76;21624;-83
2022/09/21 10:34:45;;;;;;;11.38;5.67;;;;;;;;;;1840899;76;21890;-84
2022/09/21 10:37:16;;;;;;;7.78;5.42;;;;;;;;;;1810428;76;21616;-84
2022/09/21 10:39:47;;;;;;;6.00;4.67;;;;;;;;;;1870324;76;21210;-84
2022/09/21 10:42:18;;;;;;;6.42;4.72;;;;;;;;;;1845889;76;21694;-86
2022/09/21 10:44:51;;;;;;;5.90;5.30;;;;;;;;;;1873666;75;21523;-86
2022/09/21 10:47:23;;;;;;;6.72;5.00;;;;;;;;;;1862208;76;21092;-85
2022/09/21 10:49:54;;;;;;;5.92;5.00;;;;;;;;;;1864404;76;21099;-85
2022/09/21 10:52:26;;;;;;;7.37;5.28;;;;;;;;;;1850917;76;21186;-85
2022/09/21 10:54:56;;;;;;;6.95;5.50;;;;;;;;;;1853257;74;21147;-87
2022/09/21 10:57:28;;;;;;;7.85;5.37;;;;;;;;;;1852657;76;21135;-84
2022/09/21 11:00:02;;;;;;;7.25;5.00;;;;;;;;;;1849488;76;21178;-83
2022/09/21 11:02:33;;;;;;;8.05;5.95;;;;;;;;;;1870651;76;21150;-84
2022/09/21 11:05:05;;;;;;;6.45;5.15;;;;;;;;;;1874502;76;21158;-84
2022/09/21 11:07:36;;;;;;;7.35;5.45;;;;;;;;;;1868326;76;21189;-84
2022/09/21 11:10:08;;;;;;;8.73;6.30;;;;;;;;;;1861521;76;21143;-84
2022/09/21 11:12:39;;;;;;;7.80;6.33;;;;;;;;;;1844186;76;21570;-84
2022/09/21 11:15:09;;;;;;;9.08;6.30;;;;;;;;;;1849781;76;21142;-83
2022/09/21 11:17:40;;;;;;;8.60;6.35;;;;;;;;;;1815679;77;21627;-85
2022/09/21 11:20:11;;;;;;;9.50;5.35;;;;;;;;;;1785649;79;21222;-84
2022/09/21 11:22:43;;;;;;;9.50;5.72;;;;;;;;;;1812477;79;21116;-83
2022/09/21 11:25:14;;;;;;;8.13;5.85;;;;;;;;;;1867926;76;21175;-85
2022/09/21 11:27:48;;;;;;;9.03;6.20;;;;;;;;;;1865968;76;21135;-84
2022/09/21 11:30:18;;;;;;;10.80;6.15;;;;;;;;;;1860325;76;21084;-85
2022/09/21 11:32:49;;;;;;;8.70;6.10;;;;;;;;;;1862572;75;21080;-84
2022/09/21 11:35:23;;;;;;;8.50;5.83;;;;;;;;;;1851388;76;21191;-83
2022/09/21 11:37:53;;;;;;;9.20;7.20;;;;;;;;;;1871584;76;21198;-84
2022/09/21 11:40:24;;;;;;;11.55;6.45;;;;;;;;;;1867381;76;21106;-84
2022/09/21 11:42:56;;;;;;;7.60;6.03;;;;;;;;;;1865326;76;21666;-85
2022/09/21 11:45:27;;;;;;;7.80;6.37;;;;;;;;;;1876047;76;21143;-86
2022/09/21 11:47:57;;;;;;;7.75;6.85;;;;;;;;;;1841278;77;21673;-83
2022/09/21 11:50:28;;;;;;;9.18;6.10;;;;;;;;;;1880175;76;21143;-83
2022/09/21 11:53:00;;;;;;;11.85;7.40;;;;;;;;;;1858437;76;21127;-83
2022/09/21 11:55:33;;;;;;;12.63;7.25;;;;;;;;;;1850673;76;21103;-84
2022/09/21 11:58:09;;;;;;;12.98;7.55;;;;;;;;;;1872385;75;21186;-85
2022/09/21 12:00:37;;;;;;;11.48;8.50;;;;;;;;;;1870611;75;21221;-85
2022/09/21 12:03:08;;;;;;;11.05;8.43;;;;;;;;;;1831533;77;21165;-85
2022/09/21 12:05:40;;;;;;;12.73;8.80;;;;;;;;;;1855229;76;21171;-85
2022/09/21 12:08:11;;;;;;;10.32;8.65;;;;;;;;;;1865841;75;21108;-84
2022/09/21 12:10:42;;;;;;;13.45;8.48;;;;;;;;;;1852413;76;21165;-84
2022/09/21 12:13:14;;;;;;;12.78;8.58;;;;;;;;;;1844546;76;21080;-85
2022/09/21 12:15:46;;;;;;;12.95;8.73;;;;;;;;;;1849228;77;21209;-86
2022/09/21 12:18:18;;;;;;;9.88;7.75;;;;;;;;;;1861021;75;21082;-85
2022/09/21 12:20:49;;;;;;;11.15;8.30;;;;;;;;;;1851747;76;21171;-85
2022/09/21 12:23:20;;;;;;;11.45;8.43;;;;;;;;;;1857303;76;21239;-84
2022/09/21 12:25:52;;;;;;;12.82;7.72;;;;;;;;;;1851113;76;21096;-83
2022/09/21 12:28:23;;;;;;;12.98;8.55;;;;;;;;;;1852756;76;21158;-85
2022/09/21 12:30:56;;;;;;;11.70;8.60;;;;;;;;;;1851201;76;21164;-86
2022/09/21 12:33:28;;;;;;;11.93;8.93;;;;;;;;;;1852077;77;21134;-83
2022/09/21 12:35:59;;;;;;;13.03;8.58;;;;;;;;;;1850688;76;21143;-83
2022/09/21 12:38:30;;;;;;;14.50;8.10;;;;;;;;;;1851214;76;21170;-84
2022/09/21 12:41:01;;;;;;;19.07;9.03;;;;;;;;;;1825962;76;21152;-83
2022/09/21 12:43:33;;;;;;;13.15;9.63;;;;;;;;;;1833570;76;21261;-85
2022/09/21 12:46:05;;;;;;;10.48;8.53;;;;;;;;;;1831759;77;21140;-84
2022/09/21 12:48:41;;;;;;;14.15;8.08;;;;;;;;;;1828119;76;21695;-82
2022/09/21 12:51:10;;;;;;;10.38;8.28;;;;;;;;;;1832482;77;21149;-82
2022/09/21 12:53:42;;;;;;;14.47;8.88;;;;;;;;;;1823607;78;21163;-83
2022/09/21 12:56:15;;;;;;;12.20;8.83;;;;;;;;;;1830684;76;21144;-80
2022/09/21 12:58:45;;;;;;;12.50;9.80;;;;;;;;;;1830297;77;21642;-84
2022/09/21 13:01:14;;;;;;;11.85;7.40;;;;;;;;;;1831689;77;21170;-83
2022/09/21 13:03:46;;;;;;;12.03;8.48;;;;;;;;;;1834472;76;21673;-84
2022/09/21 13:06:17;;;;;;;8.33;6.55;;;;;;;;;;1832555;76;21604;-85
2022/09/21 13:08:48;;;;;;;8.88;5.70;;;;;;;;;;1829161;77;21172;-84
2022/09/21 13:11:20;;;;;;;10.08;6.37;;;;;;;;;;1833100;78;21098;-84
2022/09/21 13:13:52;;;;;;;9.83;5.83;;;;;;;;;;1830467;78;21812;-85
2022/09/21 13:16:23;;;;;;;7.62;5.72;;;;;;;;;;1824950;78;21690;-85
2022/09/21 13:18:55;;;;;;;9.73;5.87;;;;;;;;;;1829200;77;21210;-84
2022/09/21 13:21:28;;;;;;;7.85;5.33;;;;;;;;;;1830755;77;21090;-85
2022/09/21 13:24:00;;;;;;;8.45;5.50;;;;;;;;;;1833318;78;21123;-84
2022/09/21 13:26:31;;;;;;;9.20;5.80;;;;;;;;;;1832997;77;21180;-86
2022/09/21 13:29:03;;;;;;;9.00;5.95;;;;;;;;;;1832486;77;21105;-84
2022/09/21 13:31:35;;;;;;;6.55;5.67;;;;;;;;;;1757276;80;21186;-84
2022/09/21 13:34:08;;;;;;;8.18;5.22;;;;;;;;;;1750592;80;21166;-85
2022/09/21 13:36:38;;;;;;;7.42;4.97;;;;;;;;;;1829322;78;21589;-83
2022/09/21 13:39:08;;;;;;;6.60;5.35;;;;;;;;;;1830607;76;21161;-84
2022/09/21 13:41:38;;;;;;;9.73;5.60;;;;;;;;;;1847255;76;21174;-83
2022/09/21 13:44:11;;;;;;;8.13;4.85;;;;;;;;;;1839840;76;21163;-83
2022/09/21 13:46:42;;;;;;;7.00;5.72;;;;;;;;;;1836542;76;21573;-85
2022/09/21 13:49:15;;;;;;;14.15;7.03;;;;;;;;;;1850673;76;21221;-84
2022/09/21 13:51:44;;;;;;;14.95;8.73;;;;;;;;;;1843027;76;21177;-85
2022/09/21 13:54:15;;;;;;;14.33;8.95;;;;;;;;;;1838715;77;21219;-84
2022/09/21 13:56:45;;;;;;;16.90;9.43;;;;;;;;;;1841291;76;21075;-83
2022/09/21 13:59:17;;;;;;;12.93;7.37;;;;;;;;;;1831749;76;21659;-82
2022/09/21 14:01:47;;;;;;;13.62;6.78;;;;;;;;;;1848888;76;21188;-83
2022/09/21 14:04:19;;;;;;;13.18;8.15;;;;;;;;;;1842360;76;21168;-83
2022/09/21 14:06:50;;;;;;;14.07;7.85;;;;;;;;;;1849883;76;21269;-83
2022/09/21 14:09:21;;;;;;;13.98;7.92;;;;;;;;;;1859767;76;21104;-84
2022/09/21 14:11:53;;;;;;;15.83;8.48;;;;;;;;;;1847966;75;21184;-84
2022/09/21 14:14:25;;;;;;;14.18;7.87;;;;;;;;;;1845060;76;21251;-84
2022/09/21 14:16:57;;;;;;;16.05;8.45;;;;;;;;;;1833128;76;21886;-86
2022/09/21 14:19:29;;;;;;;12.18;9.03;;;;;;;;;;1842917;76;21103;-84
2022/09/21 14:21:59;;;;;;;12.37;8.03;;;;;;;;;;1844237;76;21126;-84
2022/09/21 14:24:31;;;;;;;10.20;7.58;;;;;;;;;;1827449;78;21161;-84
2022/09/21 14:27:02;;;;;;;12.30;8.50;;;;;;;;;;1767437;79;21648;-83
2022/09/21 14:29:33;;;;;;;13.83;8.93;;;;;;;;;;1770662;79;21199;-84
2022/09/21 14:32:05;;;;;;;12.78;8.18;;;;;;;;;;1799340;78;21215;-83
2022/09/21 14:34:36;;;;;;;13.05;7.22;;;;;;;;;;1847918;76;21619;-84
2022/09/21 14:37:08;;;;;;;9.80;7.12;;;;;;;;;;1807292;78;21213;-84
2022/09/21 14:39:40;;;;;;;9.48;6.90;;;;;;;;;;1834491;77;21239;-82
2022/09/21 14:42:16;;;;;;;9.35;6.20;;;;;;;;;;1858657;76;21245;-81
2022/09/21 14:44:43;;;;;;;11.15;6.45;;;;;;;;;;1850600;76;21151;-83
2022/09/21 14:47:17;;;;;;;9.73;6.33;;;;;;;;;;1852403;76;21419;-83
2022/09/21 14:49:48;;;;;;;7.28;6.25;;;;;;;;;;1853860;76;21205;-83
2022/09/21 14:52:19;;;;;;;8.25;6.10;;;;;;;;;;1853701;76;21136;-83
2022/09/21 14:54:52;;;;;;;10.78;6.35;;;;;;;;;;1862805;76;21115;-84
2022/09/21 14:57:23;;;;;;;11.63;6.10;;;;;;;;;;1853627;75;21164;-83
2022/09/21 14:59:54;;;;;;;9.50;6.47;;;;;;;;;;1848434;76;21174;-84
2022/09/21 15:02:26;;;;;;;8.53;6.33;;;;;;;;;;1855519;76;21226;-84
2022/09/21 15:04:56;;;;;;;9.45;6.55;;;;;;;;;;1839885;76;21145;-85
2022/09/21 15:12:32;;;;;;;6.33;5.25;;;;;;;;;;1849557;75;21602;-85